Attica, Michigan
Current Conditions -  °F | °C
As of 3:34 PM on Saturday 20 Dec 2014 (Local Time) from KD95 Reporting Station
Overcast Overcast  
Wind Chill: 29°   Ceiling: 2500
Heat Index: 29°   Visibility: 10mi
Dew Point: 20°   Wind: 0mph
Humidity: 68%   Direction: NA
Pressure: 30.25"   Gusts: NA
Location:  43.03°N, 83.17°W
Report Text: KD95 202034Z AUTO 00000KT 10SM OVC025 M01/M07 A3025 RMK AO2 T10151068
Loading
Personal Weather Stations






























Interactive Weather Map New forecast layout! Learn more

10-Day Weather Forecast

Advertisements
Track Severe Weather on mobile